Flight Number: EUR1154 Duration: 1:00
Departure: Budapest Ferihegy (LHBP) at 08:15 Distance: 343 Nm
Arrival: Skopje Airport (LWSK) at 09:15 Equipment: A321

Weather Information
Budapest / Ferihegy, Hungary (LHBP) 47-26N 019-16E 185M Nov 19, 2018 - 05:00 PM EST / 2018.11.19 2200 UTC
Wind: from the E (080 degrees) at 6 MPH (5 KT):0
Visibility: 4 mile(s):0
Sky conditions: overcast Temperature: 37 F (3 C) Dew Point: 35 F (2 C) Relative Humidity: 93% Pressure (altimeter): 30.09 in. Hg (1019 hPa)
ob: LHBP 192200Z 08005KT 8000 BKN015 OVC033 03/02 Q1019 NOSIG cycle: 22
Sunrise: 05:57 Sunset: 14:58 (UTC)

Skopje-Petrovec, Macedonia, The Republic of (LWSK) 41-58N 021-39E 239M Nov 19, 2018 - 05:00 PM EST / 2018.11.19 2200 UTC
Wind: Calm:0
Visibility: greater than 7 mile(s):0
Sky conditions: overcast Temperature: 39 F (4 C) Dew Point: 37 F (3 C) Relative Humidity: 93% Pressure (altimeter): 30.06 in. Hg (1018 hPa)
ob: LWSK 192200Z 00000KT 9999 SCT023 OVC086 04/03 Q1018 NOSIG cycle: 22
Sunrise: 05:32 Sunset: 15:05 (UTC)

TAF:2018/11/19 21:31 TAF LWSK 192030Z 1921/2021 VRB02KT 9999 BKN025 OVC090 BECMG 1923/2001 12010KT -RA SCT015 BKN035 OVC070 TEMPO 2009/2015 16020KT 5000 RA BKN010 OVC033

Previous Pireps for this route
Date Aircraft Flight time Fuel used Landing rate On time
2012-09-09A32101.34-9115-1105No
2012-09-28A32101.1610170-273Yes
2012-10-26A32101.4910150-574Charter
2013-02-09A32101.2411588-164Yes
2013-08-19A3211.0080000No
2013-09-30A32101.3511762-273No
2014-05-12A32101.168038-238Yes
2014-11-15A3211.1377700Yes
2014-11-15A3211.1377700No
2015-04-02A32101.107459-425No
2016-05-21A3211,0060000Yes
2016-12-27A3211.1189460No
(pireps marked green are flown by you)

Route map